sensor_id;sensor_type;location;lat;lon;timestamp;P1;durP1;ratioP1;P2;durP2;ratioP2
15102;SDS011;7652;53.584;9.998;2023-03-01T00:01:00;10.90;;;7.20;;
15102;SDS011;7652;53.584;9.998;2023-03-01T00:04:05;12.13;;;6.30;;
15102;SDS011;7652;53.584;9.998;2023-03-01T00:07:08;11.37;;;6.33;;
15102;SDS011;7652;53.584;9.998;2023-03-01T00:10:11;11.77;;;6.10;;
15102;SDS011;7652;53.584;9.998;2023-03-01T00:13:13;13.80;;;7.37;;
15102;SDS011;7652;53.584;9.998;2023-03-01T00:16:18;15.03;;;7.23;;
15102;SDS011;7652;53.584;9.998;2023-03-01T00:19:24;14.33;;;7.17;;
15102;SDS011;7652;53.584;9.998;2023-03-01T00:22:27;10.77;;;6.10;;
15102;SDS011;7652;53.584;9.998;2023-03-01T00:25:30;10.90;;;6.87;;
15102;SDS011;7652;53.584;9.998;2023-03-01T00:28:33;12.70;;;6.20;;
15102;SDS011;7652;53.584;9.998;2023-03-01T00:31:36;11.93;;;6.53;;
15102;SDS011;7652;53.584;9.998;2023-03-01T00:34:41;11.73;;;6.20;;
15102;SDS011;7652;53.584;9.998;2023-03-01T00:37:44;11.07;;;6.10;;
15102;SDS011;7652;53.584;9.998;2023-03-01T00:40:47;9.60;;;5.90;;
15102;SDS011;7652;53.584;9.998;2023-03-01T00:43:50;8.23;;;5.43;;
15102;SDS011;7652;53.584;9.998;2023-03-01T00:46:53;9.17;;;5.63;;
15102;SDS011;7652;53.584;9.998;2023-03-01T00:49:57;10.93;;;6.10;;
15102;SDS011;7652;53.584;9.998;2023-03-01T00:53:00;8.80;;;5.40;;
15102;SDS011;7652;53.584;9.998;2023-03-01T00:56:04;11.73;;;6.17;;
15102;SDS011;7652;53.584;9.998;2023-03-01T00:59:08;8.17;;;5.07;;
15102;SDS011;7652;53.584;9.998;2023-03-01T01:02:11;10.23;;;5.53;;
15102;SDS011;7652;53.584;9.998;2023-03-01T01:05:15;9.23;;;5.50;;
15102;SDS011;7652;53.584;9.998;2023-03-01T01:08:22;10.97;;;5.67;;
15102;SDS011;7652;53.584;9.998;2023-03-01T01:11:25;8.10;;;5.00;;
15102;SDS011;7652;53.584;9.998;2023-03-01T01:14:30;8.30;;;5.07;;
15102;SDS011;7652;53.584;9.998;2023-03-01T01:17:33;6.70;;;5.10;;
15102;SDS011;7652;53.584;9.998;2023-03-01T01:20:37;9.13;;;5.43;;
15102;SDS011;7652;53.584;9.998;2023-03-01T01:23:41;9.30;;;5.37;;
15102;SDS011;7652;53.584;9.998;2023-03-01T01:26:45;9.33;;;5.07;;
15102;SDS011;7652;53.584;9.998;2023-03-01T01:29:48;8.67;;;5.20;;
15102;SDS011;7652;53.584;9.998;2023-03-01T01:32:51;10.13;;;4.83;;
15102;SDS011;7652;53.584;9.998;2023-03-01T01:35:55;9.20;;;5.43;;
15102;SDS011;7652;53.584;9.998;2023-03-01T01:38:59;8.93;;;5.30;;
15102;SDS011;7652;53.584;9.998;2023-03-01T01:42:03;11.00;;;5.40;;
15102;SDS011;7652;53.584;9.998;2023-03-01T01:45:24;8.43;;;5.70;;
15102;SDS011;7652;53.584;9.998;2023-03-01T01:48:32;8.47;;;5.03;;
15102;SDS011;7652;53.584;9.998;2023-03-01T01:51:44;8.80;;;5.43;;
15102;SDS011;7652;53.584;9.998;2023-03-01T01:54:50;8.43;;;5.70;;
15102;SDS011;7652;53.584;9.998;2023-03-01T01:57:57;8.87;;;4.73;;
15102;SDS011;7652;53.584;9.998;2023-03-01T02:01:03;9.33;;;5.13;;
15102;SDS011;7652;53.584;9.998;2023-03-01T02:04:07;7.67;;;4.90;;
15102;SDS011;7652;53.584;9.998;2023-03-01T02:07:13;8.70;;;4.97;;
15102;SDS011;7652;53.584;9.998;2023-03-01T02:10:18;6.17;;;4.60;;
15102;SDS011;7652;53.584;9.998;2023-03-01T02:13:21;8.13;;;4.90;;
15102;SDS011;7652;53.584;9.998;2023-03-01T02:16:25;8.30;;;5.37;;
15102;SDS011;7652;53.584;9.998;2023-03-01T02:19:35;7.10;;;4.67;;
15102;SDS011;7652;53.584;9.998;2023-03-01T02:22:46;7.97;;;4.37;;
15102;SDS011;7652;53.584;9.998;2023-03-01T02:25:52;8.33;;;4.77;;
15102;SDS011;7652;53.584;9.998;2023-03-01T02:29:01;7.43;;;4.67;;
15102;SDS011;7652;53.584;9.998;2023-03-01T02:32:06;7.40;;;4.73;;
15102;SDS011;7652;53.584;9.998;2023-03-01T02:35:10;5.87;;;4.17;;
15102;SDS011;7652;53.584;9.998;2023-03-01T02:38:16;6.87;;;4.40;;
15102;SDS011;7652;53.584;9.998;2023-03-01T02:41:20;5.87;;;4.30;;
15102;SDS011;7652;53.584;9.998;2023-03-01T02:44:27;8.23;;;4.30;;
15102;SDS011;7652;53.584;9.998;2023-03-01T02:47:30;6.73;;;4.47;;
15102;SDS011;7652;53.584;9.998;2023-03-01T02:54:07;8.20;;;4.13;;
15102;SDS011;7652;53.584;9.998;2023-03-01T02:57:15;7.13;;;4.23;;
15102;SDS011;7652;53.584;9.998;2023-03-01T03:00:21;7.07;;;4.97;;
15102;SDS011;7652;53.584;9.998;2023-03-01T03:03:26;6.33;;;4.33;;
15102;SDS011;7652;53.584;9.998;2023-03-01T03:06:30;6.60;;;4.50;;
15102;SDS011;7652;53.584;9.998;2023-03-01T03:09:33;7.70;;;4.37;;
15102;SDS011;7652;53.584;9.998;2023-03-01T03:12:36;6.03;;;4.47;;
15102;SDS011;7652;53.584;9.998;2023-03-01T03:15:41;7.43;;;4.40;;
15102;SDS011;7652;53.584;9.998;2023-03-01T03:18:45;5.23;;;4.20;;
15102;SDS011;7652;53.584;9.998;2023-03-01T03:21:48;5.53;;;4.53;;
15102;SDS011;7652;53.584;9.998;2023-03-01T03:24:51;6.07;;;4.33;;
15102;SDS011;7652;53.584;9.998;2023-03-01T03:27:54;5.90;;;4.17;;
15102;SDS011;7652;53.584;9.998;2023-03-01T03:31:00;5.70;;;3.77;;
15102;SDS011;7652;53.584;9.998;2023-03-01T03:34:04;6.00;;;4.53;;
15102;SDS011;7652;53.584;9.998;2023-03-01T03:37:07;6.10;;;4.00;;
15102;SDS011;7652;53.584;9.998;2023-03-01T03:40:31;8.10;;;4.30;;
15102;SDS011;7652;53.584;9.998;2023-03-01T03:43:36;5.77;;;3.97;;
15102;SDS011;7652;53.584;9.998;2023-03-01T03:46:42;5.43;;;4.00;;
15102;SDS011;7652;53.584;9.998;2023-03-01T03:49:45;5.00;;;3.43;;
15102;SDS011;7652;53.584;9.998;2023-03-01T03:52:48;5.90;;;3.83;;
15102;SDS011;7652;53.584;9.998;2023-03-01T03:55:51;4.57;;;3.10;;
15102;SDS011;7652;53.584;9.998;2023-03-01T03:58:54;3.80;;;2.97;;
15102;SDS011;7652;53.584;9.998;2023-03-01T04:01:59;4.70;;;3.17;;
15102;SDS011;7652;53.584;9.998;2023-03-01T04:05:02;4.43;;;2.80;;
15102;SDS011;7652;53.584;9.998;2023-03-01T04:08:05;5.30;;;2.97;;
15102;SDS011;7652;53.584;9.998;2023-03-01T04:11:09;4.10;;;3.40;;
15102;SDS011;7652;53.584;9.998;2023-03-01T04:14:30;3.90;;;2.90;;
15102;SDS011;7652;53.584;9.998;2023-03-01T04:17:36;3.10;;;2.57;;
15102;SDS011;7652;53.584;9.998;2023-03-01T04:20:41;5.03;;;3.57;;
15102;SDS011;7652;53.584;9.998;2023-03-01T04:23:46;5.03;;;3.00;;
15102;SDS011;7652;53.584;9.998;2023-03-01T04:26:49;4.20;;;2.97;;
15102;SDS011;7652;53.584;9.998;2023-03-01T04:29:52;6.30;;;3.00;;
15102;SDS011;7652;53.584;9.998;2023-03-01T04:32:56;4.77;;;2.70;;
15102;SDS011;7652;53.584;9.998;2023-03-01T04:35:59;3.90;;;2.67;;
15102;SDS011;7652;53.584;9.998;2023-03-01T04:39:06;2.67;;;2.47;;
15102;SDS011;7652;53.584;9.998;2023-03-01T04:42:13;3.60;;;2.57;;
15102;SDS011;7652;53.584;9.998;2023-03-01T04:45:17;2.87;;;2.43;;
15102;SDS011;7652;53.584;9.998;2023-03-01T04:48:22;3.80;;;2.90;;
15102;SDS011;7652;53.584;9.998;2023-03-01T04:51:25;7.60;;;2.80;;
15102;SDS011;7652;53.584;9.998;2023-03-01T04:54:29;3.80;;;2.57;;
15102;SDS011;7652;53.584;9.998;2023-03-01T04:57:32;3.33;;;2.67;;
15102;SDS011;7652;53.584;9.998;2023-03-01T05:00:35;4.50;;;3.07;;
15102;SDS011;7652;53.584;9.998;2023-03-01T05:03:40;5.30;;;3.10;;
15102;SDS011;7652;53.584;9.998;2023-03-01T05:06:44;5.17;;;3.60;;
15102;SDS011;7652;53.584;9.998;2023-03-01T05:09:47;6.33;;;3.33;;
15102;SDS011;7652;53.584;9.998;2023-03-01T05:12:50;7.70;;;2.73;;
15102;SDS011;7652;53.584;9.998;2023-03-01T05:15:55;4.50;;;3.10;;
15102;SDS011;7652;53.584;9.998;2023-03-01T05:19:00;5.00;;;3.13;;
15102;SDS011;7652;53.584;9.998;2023-03-01T05:22:12;5.43;;;2.53;;
15102;SDS011;7652;53.584;9.998;2023-03-01T05:25:15;4.23;;;2.77;;
15102;SDS011;7652;53.584;9.998;2023-03-01T05:28:19;3.50;;;2.70;;
15102;SDS011;7652;53.584;9.998;2023-03-01T05:31:22;4.20;;;3.00;;
15102;SDS011;7652;53.584;9.998;2023-03-01T05:34:28;3.13;;;2.57;;
15102;SDS011;7652;53.584;9.998;2023-03-01T05:37:31;4.40;;;3.43;;
15102;SDS011;7652;53.584;9.998;2023-03-01T05:40:34;5.93;;;3.03;;
15102;SDS011;7652;53.584;9.998;2023-03-01T05:43:37;5.80;;;4.13;;
15102;SDS011;7652;53.584;9.998;2023-03-01T05:46:43;9.90;;;3.90;;
15102;SDS011;7652;53.584;9.998;2023-03-01T05:49:47;4.47;;;3.50;;
15102;SDS011;7652;53.584;9.998;2023-03-01T05:52:52;6.50;;;4.00;;
15102;SDS011;7652;53.584;9.998;2023-03-01T05:55:59;9.10;;;4.00;;
15102;SDS011;7652;53.584;9.998;2023-03-01T05:59:04;8.60;;;3.80;;
15102;SDS011;7652;53.584;9.998;2023-03-01T06:02:08;5.17;;;3.77;;
15102;SDS011;7652;53.584;9.998;2023-03-01T06:05:13;4.37;;;3.40;;
15102;SDS011;7652;53.584;9.998;2023-03-01T06:08:16;6.53;;;3.97;;
15102;SDS011;7652;53.584;9.998;2023-03-01T06:11:21;6.47;;;4.30;;
15102;SDS011;7652;53.584;9.998;2023-03-01T06:14:24;5.73;;;4.13;;
15102;SDS011;7652;53.584;9.998;2023-03-01T06:17:28;6.33;;;3.77;;
15102;SDS011;7652;53.584;9.998;2023-03-01T06:20:34;5.70;;;3.73;;
15102;SDS011;7652;53.584;9.998;2023-03-01T06:23:37;4.83;;;3.60;;
15102;SDS011;7652;53.584;9.998;2023-03-01T06:26:40;5.87;;;3.77;;
15102;SDS011;7652;53.584;9.998;2023-03-01T06:29:44;4.60;;;3.53;;
15102;SDS011;7652;53.584;9.998;2023-03-01T06:32:47;3.53;;;2.67;;
15102;SDS011;7652;53.584;9.998;2023-03-01T06:35:53;4.63;;;3.30;;
15102;SDS011;7652;53.584;9.998;2023-03-01T06:38:57;4.40;;;3.03;;
15102;SDS011;7652;53.584;9.998;2023-03-01T06:42:00;6.83;;;3.43;;
15102;SDS011;7652;53.584;9.998;2023-03-01T06:45:03;4.60;;;3.30;;
15102;SDS011;7652;53.584;9.998;2023-03-01T06:48:08;4.87;;;2.73;;
15102;SDS011;7652;53.584;9.998;2023-03-01T06:51:12;6.13;;;3.33;;
15102;SDS011;7652;53.584;9.998;2023-03-01T06:54:15;4.40;;;2.83;;
15102;SDS011;7652;53.584;9.998;2023-03-01T06:57:19;4.80;;;3.30;;
15102;SDS011;7652;53.584;9.998;2023-03-01T07:00:23;5.83;;;3.33;;
15102;SDS011;7652;53.584;9.998;2023-03-01T07:03:27;5.87;;;3.53;;
15102;SDS011;7652;53.584;9.998;2023-03-01T07:06:31;5.73;;;3.37;;
15102;SDS011;7652;53.584;9.998;2023-03-01T07:09:34;6.23;;;3.80;;
15102;SDS011;7652;53.584;9.998;2023-03-01T07:12:37;6.53;;;3.17;;
15102;SDS011;7652;53.584;9.998;2023-03-01T07:15:42;4.87;;;3.50;;
15102;SDS011;7652;53.584;9.998;2023-03-01T07:18:45;4.13;;;2.90;;
15102;SDS011;7652;53.584;9.998;2023-03-01T07:21:50;6.50;;;3.50;;
15102;SDS011;7652;53.584;9.998;2023-03-01T07:24:53;10.27;;;4.13;;
15102;SDS011;7652;53.584;9.998;2023-03-01T07:27:56;5.73;;;3.77;;
15102;SDS011;7652;53.584;9.998;2023-03-01T07:31:00;6.53;;;3.90;;
15102;SDS011;7652;53.584;9.998;2023-03-01T07:34:04;8.90;;;4.67;;
15102;SDS011;7652;53.584;9.998;2023-03-01T07:37:08;6.57;;;5.23;;
15102;SDS011;7652;53.584;9.998;2023-03-01T07:40:11;9.27;;;4.80;;
15102;SDS011;7652;53.584;9.998;2023-03-01T07:43:15;7.47;;;4.10;;
15102;SDS011;7652;53.584;9.998;2023-03-01T07:46:18;8.60;;;4.73;;
15102;SDS011;7652;53.584;9.998;2023-03-01T07:49:21;7.57;;;5.17;;
15102;SDS011;7652;53.584;9.998;2023-03-01T07:52:26;7.47;;;5.73;;
15102;SDS011;7652;53.584;9.998;2023-03-01T07:55:29;9.83;;;6.40;;
15102;SDS011;7652;53.584;9.998;2023-03-01T07:58:33;10.87;;;6.77;;
15102;SDS011;7652;53.584;9.998;2023-03-01T08:01:37;10.97;;;6.93;;
15102;SDS011;7652;53.584;9.998;2023-03-01T08:04:40;10.43;;;6.80;;
15102;SDS011;7652;53.584;9.998;2023-03-01T08:07:44;11.03;;;6.93;;
15102;SDS011;7652;53.584;9.998;2023-03-01T08:10:47;10.40;;;6.47;;
15102;SDS011;7652;53.584;9.998;2023-03-01T08:13:51;11.33;;;7.27;;
15102;SDS011;7652;53.584;9.998;2023-03-01T08:16:54;11.03;;;7.03;;
15102;SDS011;7652;53.584;9.998;2023-03-01T08:19:57;9.37;;;6.83;;
15102;SDS011;7652;53.584;9.998;2023-03-01T08:23:02;9.63;;;7.13;;
15102;SDS011;7652;53.584;9.998;2023-03-01T08:26:06;11.53;;;7.53;;
15102;SDS011;7652;53.584;9.998;2023-03-01T08:29:09;9.60;;;7.47;;
15102;SDS011;7652;53.584;9.998;2023-03-01T08:32:12;10.07;;;7.00;;
15102;SDS011;7652;53.584;9.998;2023-03-01T08:35:16;11.10;;;7.90;;
15102;SDS011;7652;53.584;9.998;2023-03-01T08:38:21;11.10;;;7.70;;
15102;SDS011;7652;53.584;9.998;2023-03-01T08:41:24;12.60;;;7.83;;
15102;SDS011;7652;53.584;9.998;2023-03-01T08:44:27;11.73;;;7.93;;
15102;SDS011;7652;53.584;9.998;2023-03-01T08:47:30;9.27;;;7.63;;
15102;SDS011;7652;53.584;9.998;2023-03-01T08:50:34;12.77;;;7.57;;
15102;SDS011;7652;53.584;9.998;2023-03-01T08:53:39;14.87;;;8.33;;
15102;SDS011;7652;53.584;9.998;2023-03-01T08:56:42;9.67;;;7.57;;
15102;SDS011;7652;53.584;9.998;2023-03-01T08:59:45;9.87;;;7.30;;
15102;SDS011;7652;53.584;9.998;2023-03-01T09:02:48;14.47;;;8.20;;
15102;SDS011;7652;53.584;9.998;2023-03-01T09:05:51;11.77;;;7.33;;
15102;SDS011;7652;53.584;9.998;2023-03-01T09:08:56;10.20;;;7.60;;
15102;SDS011;7652;53.584;9.998;2023-03-01T09:11:59;11.57;;;7.03;;
15102;SDS011;7652;53.584;9.998;2023-03-01T09:15:03;12.70;;;7.70;;
15102;SDS011;7652;53.584;9.998;2023-03-01T09:18:06;12.90;;;8.77;;
15102;SDS011;7652;53.584;9.998;2023-03-01T09:21:10;12.73;;;8.30;;
15102;SDS011;7652;53.584;9.998;2023-03-01T09:24:17;12.33;;;7.83;;
15102;SDS011;7652;53.584;9.998;2023-03-01T09:27:21;12.60;;;7.80;;
15102;SDS011;7652;53.584;9.998;2023-03-01T09:30:26;15.10;;;8.90;;
15102;SDS011;7652;53.584;9.998;2023-03-01T09:33:29;15.20;;;10.00;;
15102;SDS011;7652;53.584;9.998;2023-03-01T09:36:33;14.43;;;9.00;;
15102;SDS011;7652;53.584;9.998;2023-03-01T09:39:38;14.63;;;9.10;;
15102;SDS011;7652;53.584;9.998;2023-03-01T09:42:46;13.60;;;8.83;;
15102;SDS011;7652;53.584;9.998;2023-03-01T09:45:54;12.23;;;8.77;;
15102;SDS011;7652;53.584;9.998;2023-03-01T09:49:01;12.33;;;8.80;;
15102;SDS011;7652;53.584;9.998;2023-03-01T09:52:12;15.73;;;9.37;;
15102;SDS011;7652;53.584;9.998;2023-03-01T09:55:24;9.77;;;8.00;;
15102;SDS011;7652;53.584;9.998;2023-03-01T09:58:38;11.00;;;8.20;;
15102;SDS011;7652;53.584;9.998;2023-03-01T10:01:51;10.57;;;7.87;;
15102;SDS011;7652;53.584;9.998;2023-03-01T10:05:00;11.37;;;7.70;;
15102;SDS011;7652;53.584;9.998;2023-03-01T10:11:42;12.93;;;8.63;;
15102;SDS011;7652;53.584;9.998;2023-03-01T10:14:49;11.87;;;8.07;;
15102;SDS011;7652;53.584;9.998;2023-03-01T10:18:00;10.47;;;8.03;;
15102;SDS011;7652;53.584;9.998;2023-03-01T10:21:12;11.70;;;8.23;;
15102;SDS011;7652;53.584;9.998;2023-03-01T10:24:18;13.07;;;8.60;;
15102;SDS011;7652;53.584;9.998;2023-03-01T10:27:24;11.30;;;8.03;;
15102;SDS011;7652;53.584;9.998;2023-03-01T10:30:32;10.90;;;7.93;;
15102;SDS011;7652;53.584;9.998;2023-03-01T10:33:39;9.77;;;7.27;;
15102;SDS011;7652;53.584;9.998;2023-03-01T10:36:44;10.87;;;6.60;;
15102;SDS011;7652;53.584;9.998;2023-03-01T10:39:57;8.63;;;6.87;;
15102;SDS011;7652;53.584;9.998;2023-03-01T10:43:04;7.97;;;6.47;;
15102;SDS011;7652;53.584;9.998;2023-03-01T10:46:19;11.77;;;7.50;;
15102;SDS011;7652;53.584;9.998;2023-03-01T10:49:28;10.20;;;6.50;;
15102;SDS011;7652;53.584;9.998;2023-03-01T10:52:33;8.60;;;6.30;;
15102;SDS011;7652;53.584;9.998;2023-03-01T10:55:38;9.57;;;6.90;;
15102;SDS011;7652;53.584;9.998;2023-03-01T10:58:56;9.17;;;6.97;;
15102;SDS011;7652;53.584;9.998;2023-03-01T11:02:02;9.40;;;6.37;;
15102;SDS011;7652;53.584;9.998;2023-03-01T11:05:25;7.70;;;6.00;;
15102;SDS011;7652;53.584;9.998;2023-03-01T11:08:38;9.17;;;6.63;;
15102;SDS011;7652;53.584;9.998;2023-03-01T11:11:43;8.07;;;6.57;;
15102;SDS011;7652;53.584;9.998;2023-03-01T11:14:49;10.60;;;7.53;;
15102;SDS011;7652;53.584;9.998;2023-03-01T11:17:54;8.57;;;6.50;;
15102;SDS011;7652;53.584;9.998;2023-03-01T11:21:14;7.57;;;5.97;;
15102;SDS011;7652;53.584;9.998;2023-03-01T11:24:18;7.00;;;5.83;;
15102;SDS011;7652;53.584;9.998;2023-03-01T11:27:25;9.40;;;6.70;;
15102;SDS011;7652;53.584;9.998;2023-03-01T11:30:32;7.50;;;6.30;;
15102;SDS011;7652;53.584;9.998;2023-03-01T11:33:41;10.57;;;5.80;;
15102;SDS011;7652;53.584;9.998;2023-03-01T11:36:51;6.20;;;5.57;;
15102;SDS011;7652;53.584;9.998;2023-03-01T11:40:03;8.60;;;5.67;;
15102;SDS011;7652;53.584;9.998;2023-03-01T11:43:15;8.50;;;5.77;;
15102;SDS011;7652;53.584;9.998;2023-03-01T11:53:42;3.63;;;3.20;;
15102;SDS011;7652;53.584;9.998;2023-03-01T11:56:57;4.23;;;3.33;;
15102;SDS011;7652;53.584;9.998;2023-03-01T12:00:07;3.30;;;3.00;;
15102;SDS011;7652;53.584;9.998;2023-03-01T12:03:25;4.93;;;3.63;;
15102;SDS011;7652;53.584;9.998;2023-03-01T12:10:04;4.53;;;3.40;;
15102;SDS011;7652;53.584;9.998;2023-03-01T12:13:40;5.37;;;3.47;;
15102;SDS011;7652;53.584;9.998;2023-03-01T12:17:12;3.70;;;3.20;;
15102;SDS011;7652;53.584;9.998;2023-03-01T12:20:40;4.60;;;3.87;;
15102;SDS011;7652;53.584;9.998;2023-03-01T12:23:59;5.63;;;4.23;;
15102;SDS011;7652;53.584;9.998;2023-03-01T12:27:42;4.50;;;3.60;;
15102;SDS011;7652;53.584;9.998;2023-03-01T12:31:00;3.90;;;3.50;;
15102;SDS011;7652;53.584;9.998;2023-03-01T12:34:20;4.10;;;3.50;;
15102;SDS011;7652;53.584;9.998;2023-03-01T12:37:38;3.47;;;3.13;;
15102;SDS011;7652;53.584;9.998;2023-03-01T12:40:58;4.07;;;2.73;;
15102;SDS011;7652;53.584;9.998;2023-03-01T12:44:32;4.10;;;3.60;;
15102;SDS011;7652;53.584;9.998;2023-03-01T12:47:46;6.10;;;3.67;;
15102;SDS011;7652;53.584;9.998;2023-03-01T12:51:03;3.30;;;3.03;;
15102;SDS011;7652;53.584;9.998;2023-03-01T12:54:16;3.87;;;3.33;;
15102;SDS011;7652;53.584;9.998;2023-03-01T12:57:26;5.23;;;3.60;;
15102;SDS011;7652;53.584;9.998;2023-03-01T13:00:39;3.97;;;3.60;;
15102;SDS011;7652;53.584;9.998;2023-03-01T13:03:59;4.40;;;3.80;;
15102;SDS011;7652;53.584;9.998;2023-03-01T13:07:16;3.70;;;3.40;;
15102;SDS011;7652;53.584;9.998;2023-03-01T13:10:30;4.63;;;4.23;;
15102;SDS011;7652;53.584;9.998;2023-03-01T13:13:36;4.57;;;3.60;;
15102;SDS011;7652;53.584;9.998;2023-03-01T13:16:40;4.10;;;3.70;;
15102;SDS011;7652;53.584;9.998;2023-03-01T13:19:55;4.20;;;3.80;;
15102;SDS011;7652;53.584;9.998;2023-03-01T13:23:00;4.93;;;4.23;;
15102;SDS011;7652;53.584;9.998;2023-03-01T13:26:11;4.50;;;3.67;;
15102;SDS011;7652;53.584;9.998;2023-03-01T13:29:25;8.13;;;4.40;;
15102;SDS011;7652;53.584;9.998;2023-03-01T13:32:29;4.17;;;3.80;;
15102;SDS011;7652;53.584;9.998;2023-03-01T13:35:45;6.47;;;4.60;;
15102;SDS011;7652;53.584;9.998;2023-03-01T13:38:54;4.00;;;3.60;;
15102;SDS011;7652;53.584;9.998;2023-03-01T13:42:00;4.43;;;4.03;;
15102;SDS011;7652;53.584;9.998;2023-03-01T13:45:05;5.13;;;3.47;;
15102;SDS011;7652;53.584;9.998;2023-03-01T13:48:25;3.93;;;3.60;;
15102;SDS011;7652;53.584;9.998;2023-03-01T13:51:30;4.50;;;4.10;;
15102;SDS011;7652;53.584;9.998;2023-03-01T13:54:33;4.07;;;3.70;;
15102;SDS011;7652;53.584;9.998;2023-03-01T13:57:39;5.00;;;4.10;;
15102;SDS011;7652;53.584;9.998;2023-03-01T14:00:44;6.43;;;4.00;;
15102;SDS011;7652;53.584;9.998;2023-03-01T14:03:47;3.53;;;3.23;;
15102;SDS011;7652;53.584;9.998;2023-03-01T14:06:50;3.40;;;3.10;;
15102;SDS011;7652;53.584;9.998;2023-03-01T14:09:54;4.50;;;4.10;;
15102;SDS011;7652;53.584;9.998;2023-03-01T14:13:03;4.90;;;3.80;;
15102;SDS011;7652;53.584;9.998;2023-03-01T14:16:20;4.23;;;3.83;;
15102;SDS011;7652;53.584;9.998;2023-03-01T14:19:31;3.93;;;3.20;;
15102;SDS011;7652;53.584;9.998;2023-03-01T14:22:36;4.03;;;3.33;;
15102;SDS011;7652;53.584;9.998;2023-03-01T14:25:46;4.87;;;3.97;;
15102;SDS011;7652;53.584;9.998;2023-03-01T14:28:52;3.70;;;2.97;;
15102;SDS011;7652;53.584;9.998;2023-03-01T14:32:01;4.13;;;3.33;;
15102;SDS011;7652;53.584;9.998;2023-03-01T14:35:19;4.60;;;3.40;;
15102;SDS011;7652;53.584;9.998;2023-03-01T14:38:28;5.40;;;3.63;;
15102;SDS011;7652;53.584;9.998;2023-03-01T14:41:34;3.53;;;3.23;;
15102;SDS011;7652;53.584;9.998;2023-03-01T14:44:40;3.73;;;3.27;;
15102;SDS011;7652;53.584;9.998;2023-03-01T14:47:44;4.40;;;3.83;;
15102;SDS011;7652;53.584;9.998;2023-03-01T14:50:48;4.13;;;3.70;;
15102;SDS011;7652;53.584;9.998;2023-03-01T14:53:52;6.13;;;3.80;;
15102;SDS011;7652;53.584;9.998;2023-03-01T14:56:57;6.20;;;3.50;;
15102;SDS011;7652;53.584;9.998;2023-03-01T15:00:05;4.80;;;3.90;;
15102;SDS011;7652;53.584;9.998;2023-03-01T15:03:11;4.93;;;3.50;;
15102;SDS011;7652;53.584;9.998;2023-03-01T15:06:17;4.50;;;3.80;;
15102;SDS011;7652;53.584;9.998;2023-03-01T15:09:22;5.30;;;4.03;;
15102;SDS011;7652;53.584;9.998;2023-03-01T15:12:35;6.03;;;4.30;;
15102;SDS011;7652;53.584;9.998;2023-03-01T15:15:42;6.70;;;4.20;;
15102;SDS011;7652;53.584;9.998;2023-03-01T15:18:48;4.00;;;3.60;;
15102;SDS011;7652;53.584;9.998;2023-03-01T15:21:53;5.57;;;4.30;;
15102;SDS011;7652;53.584;9.998;2023-03-01T15:24:56;4.40;;;4.00;;
15102;SDS011;7652;53.584;9.998;2023-03-01T15:28:00;4.30;;;3.90;;
15102;SDS011;7652;53.584;9.998;2023-03-01T15:31:07;8.60;;;4.27;;
15102;SDS011;7652;53.584;9.998;2023-03-01T15:34:23;4.83;;;4.07;;
15102;SDS011;7652;53.584;9.998;2023-03-01T15:40:51;7.27;;;4.87;;
15102;SDS011;7652;53.584;9.998;2023-03-01T15:43:55;4.80;;;4.30;;
15102;SDS011;7652;53.584;9.998;2023-03-01T15:47:00;7.70;;;4.90;;
15102;SDS011;7652;53.584;9.998;2023-03-01T15:50:05;6.83;;;5.20;;
15102;SDS011;7652;53.584;9.998;2023-03-01T15:53:16;9.47;;;5.47;;
15102;SDS011;7652;53.584;9.998;2023-03-01T15:56:19;7.63;;;5.30;;
15102;SDS011;7652;53.584;9.998;2023-03-01T15:59:22;8.07;;;5.33;;
15102;SDS011;7652;53.584;9.998;2023-03-01T16:02:27;8.27;;;5.57;;
15102;SDS011;7652;53.584;9.998;2023-03-01T16:05:31;13.47;;;6.77;;
15102;SDS011;7652;53.584;9.998;2023-03-01T16:08:36;7.20;;;5.70;;
15102;SDS011;7652;53.584;9.998;2023-03-01T16:11:39;7.20;;;5.57;;
15102;SDS011;7652;53.584;9.998;2023-03-01T16:14:43;8.17;;;5.93;;
15102;SDS011;7652;53.584;9.998;2023-03-01T16:17:48;7.60;;;5.60;;
15102;SDS011;7652;53.584;9.998;2023-03-01T16:20:51;6.63;;;5.33;;
15102;SDS011;7652;53.584;9.998;2023-03-01T16:23:55;7.40;;;4.57;;
15102;SDS011;7652;53.584;9.998;2023-03-01T16:26:58;5.27;;;4.30;;
15102;SDS011;7652;53.584;9.998;2023-03-01T16:30:01;6.13;;;3.90;;
15102;SDS011;7652;53.584;9.998;2023-03-01T16:33:05;6.93;;;4.13;;
15102;SDS011;7652;53.584;9.998;2023-03-01T16:36:30;5.47;;;4.27;;
15102;SDS011;7652;53.584;9.998;2023-03-01T16:39:32;7.03;;;4.60;;
15102;SDS011;7652;53.584;9.998;2023-03-01T16:42:36;6.97;;;5.03;;
15102;SDS011;7652;53.584;9.998;2023-03-01T16:45:41;7.63;;;5.33;;
15102;SDS011;7652;53.584;9.998;2023-03-01T16:48:47;8.50;;;5.73;;
15102;SDS011;7652;53.584;9.998;2023-03-01T16:51:53;7.77;;;5.90;;
15102;SDS011;7652;53.584;9.998;2023-03-01T16:54:56;8.93;;;6.47;;
15102;SDS011;7652;53.584;9.998;2023-03-01T16:57:59;13.73;;;7.27;;
15102;SDS011;7652;53.584;9.998;2023-03-01T17:01:05;10.60;;;6.57;;
15102;SDS011;7652;53.584;9.998;2023-03-01T17:04:11;10.00;;;6.77;;
15102;SDS011;7652;53.584;9.998;2023-03-01T17:07:15;9.93;;;7.10;;
15102;SDS011;7652;53.584;9.998;2023-03-01T17:10:18;11.57;;;6.30;;
15102;SDS011;7652;53.584;9.998;2023-03-01T17:13:21;8.73;;;6.00;;
15102;SDS011;7652;53.584;9.998;2023-03-01T17:16:25;7.47;;;5.57;;
15102;SDS011;7652;53.584;9.998;2023-03-01T17:19:30;8.40;;;6.30;;
15102;SDS011;7652;53.584;9.998;2023-03-01T17:22:33;7.40;;;5.07;;
15102;SDS011;7652;53.584;9.998;2023-03-01T17:25:40;6.17;;;4.90;;
15102;SDS011;7652;53.584;9.998;2023-03-01T17:28:45;8.03;;;5.83;;
15102;SDS011;7652;53.584;9.998;2023-03-01T17:31:52;6.13;;;5.10;;
15102;SDS011;7652;53.584;9.998;2023-03-01T17:34:58;6.30;;;5.10;;
15102;SDS011;7652;53.584;9.998;2023-03-01T17:38:01;7.17;;;5.37;;
15102;SDS011;7652;53.584;9.998;2023-03-01T17:41:04;7.10;;;5.03;;
15102;SDS011;7652;53.584;9.998;2023-03-01T17:44:07;7.23;;;5.57;;
15102;SDS011;7652;53.584;9.998;2023-03-01T17:47:10;6.87;;;5.30;;
15102;SDS011;7652;53.584;9.998;2023-03-01T17:50:15;7.13;;;4.87;;
15102;SDS011;7652;53.584;9.998;2023-03-01T17:53:18;4.63;;;4.13;;
15102;SDS011;7652;53.584;9.998;2023-03-01T17:56:22;6.10;;;5.10;;
15102;SDS011;7652;53.584;9.998;2023-03-01T17:59:25;6.00;;;5.40;;
15102;SDS011;7652;53.584;9.998;2023-03-01T18:02:31;8.77;;;5.47;;
15102;SDS011;7652;53.584;9.998;2023-03-01T18:05:35;7.53;;;5.87;;
15102;SDS011;7652;53.584;9.998;2023-03-01T18:08:39;7.27;;;5.53;;
15102;SDS011;7652;53.584;9.998;2023-03-01T18:11:42;9.67;;;5.93;;
15102;SDS011;7652;53.584;9.998;2023-03-01T18:14:48;7.80;;;5.97;;
15102;SDS011;7652;53.584;9.998;2023-03-01T18:17:53;6.80;;;5.47;;
15102;SDS011;7652;53.584;9.998;2023-03-01T18:20:58;6.73;;;5.27;;
15102;SDS011;7652;53.584;9.998;2023-03-01T18:24:02;6.43;;;5.50;;
15102;SDS011;7652;53.584;9.998;2023-03-01T18:27:05;8.47;;;5.90;;
15102;SDS011;7652;53.584;9.998;2023-03-01T18:30:10;7.63;;;5.73;;
15102;SDS011;7652;53.584;9.998;2023-03-01T18:33:15;9.23;;;6.80;;
15102;SDS011;7652;53.584;9.998;2023-03-01T18:36:20;9.00;;;7.23;;
15102;SDS011;7652;53.584;9.998;2023-03-01T18:39:24;8.90;;;6.93;;
15102;SDS011;7652;53.584;9.998;2023-03-01T18:42:28;10.10;;;7.20;;
15102;SDS011;7652;53.584;9.998;2023-03-01T18:45:31;10.77;;;7.73;;
15102;SDS011;7652;53.584;9.998;2023-03-01T18:48:34;12.40;;;8.90;;
15102;SDS011;7652;53.584;9.998;2023-03-01T18:51:39;12.17;;;8.63;;
15102;SDS011;7652;53.584;9.998;2023-03-01T18:54:42;12.23;;;9.00;;
15102;SDS011;7652;53.584;9.998;2023-03-01T18:57:45;19.83;;;13.00;;
15102;SDS011;7652;53.584;9.998;2023-03-01T19:00:48;13.03;;;9.83;;
15102;SDS011;7652;53.584;9.998;2023-03-01T19:03:51;13.77;;;10.10;;
15102;SDS011;7652;53.584;9.998;2023-03-01T19:06:57;16.20;;;10.80;;
15102;SDS011;7652;53.584;9.998;2023-03-01T19:10:02;15.13;;;10.97;;
15102;SDS011;7652;53.584;9.998;2023-03-01T19:13:06;18.53;;;12.00;;
15102;SDS011;7652;53.584;9.998;2023-03-01T19:16:10;15.27;;;10.73;;